createdAt,value
2018-08-04T00:01:07.388Z,63.51
2018-08-04T00:03:38.800Z,63.70
2018-08-04T00:06:09.107Z,63.77
2018-08-04T00:08:41.996Z,63.93
2018-08-04T00:11:15.329Z,63.69
2018-08-04T00:13:48.171Z,63.46
2018-08-04T00:16:21.124Z,63.41
2018-08-04T00:18:52.800Z,63.39
2018-08-04T00:21:24.239Z,63.44
2018-08-04T00:23:57.296Z,63.27
2018-08-04T00:26:36.821Z,63.52
2018-08-04T00:29:08.372Z,63.50
2018-08-04T00:31:38.293Z,63.22
2018-08-04T00:34:09.860Z,63.24
2018-08-04T00:36:40.168Z,63.09
2018-08-04T00:39:13.209Z,63.39
2018-08-04T00:41:43.188Z,63.41
2018-08-04T00:44:16.175Z,63.69
2018-08-04T00:46:46.044Z,64.75
2018-08-04T00:49:18.970Z,64.45
2018-08-04T00:51:50.119Z,65.09
2018-08-04T00:54:20.601Z,65.33
2018-08-04T00:56:52.045Z,65.78
2018-08-04T00:59:22.520Z,66.08
2018-08-04T01:01:53.945Z,65.55
2018-08-04T01:04:25.371Z,65.63
2018-08-04T01:06:58.344Z,65.33
2018-08-04T01:09:31.343Z,65.44
2018-08-04T01:12:04.281Z,65.33
2018-08-04T01:14:35.652Z,65.71
2018-08-04T01:17:09.298Z,66.07
2018-08-04T01:19:39.902Z,67.18
2018-08-04T01:22:09.941Z,66.76
2018-08-04T01:24:41.464Z,66.57
2018-08-04T01:27:12.960Z,66.52
2018-08-04T01:29:46.111Z,66.37
2018-08-04T01:32:16.277Z,66.32
2018-08-04T01:34:49.088Z,65.97
2018-08-04T01:37:22.139Z,66.38
2018-08-04T01:39:55.229Z,67.33
2018-08-04T01:42:28.957Z,67.63
2018-08-04T01:45:00.694Z,68.06
2018-08-04T01:47:32.556Z,67.81
2018-08-04T01:50:02.493Z,68.03
2018-08-04T01:52:32.504Z,67.57
2018-08-04T01:55:03.436Z,67.42
2018-08-04T01:57:33.838Z,67.19
2018-08-04T02:00:05.767Z,67.37
2018-08-04T02:02:37.347Z,67.45
2018-08-04T02:05:08.695Z,67.29
2018-08-04T02:07:41.310Z,67.13
2018-08-04T02:10:12.806Z,67.23
2018-08-04T02:12:45.928Z,67.65
2018-08-04T02:15:18.576Z,67.85
2018-08-04T02:17:49.979Z,67.63
2018-08-04T02:20:22.456Z,67.53
2018-08-04T02:22:53.888Z,67.45
2018-08-04T02:25:25.445Z,67.75
2018-08-04T02:27:57.318Z,67.83
2018-08-04T02:30:28.860Z,68.44
2018-08-04T02:33:01.811Z,67.83
2018-08-04T02:35:34.751Z,67.72
2018-08-04T02:38:07.580Z,68.30
2018-08-04T02:40:38.299Z,68.20
2018-08-04T02:43:10.321Z,68.38
2018-08-04T02:45:40.328Z,68.61
2018-08-04T02:48:10.235Z,68.98
2018-08-04T02:50:43.231Z,69.71
2018-08-04T02:53:17.568Z,70.01
2018-08-04T02:55:47.752Z,69.83
2018-08-04T02:58:18.368Z,69.94
2018-08-04T03:00:48.709Z,70.32
2018-08-04T03:03:21.642Z,71.01
2018-08-04T03:05:54.598Z,70.64
2018-08-04T03:08:26.027Z,70.90
2018-08-04T03:10:57.469Z,71.48
2018-08-04T03:13:30.468Z,71.77
2018-08-04T03:16:01.800Z,71.85
2018-08-04T03:18:34.931Z,72.17
2018-08-04T03:21:07.880Z,72.59
2018-08-04T03:23:40.822Z,72.98
2018-08-04T03:26:12.288Z,72.97
2018-08-04T03:28:45.504Z,73.09
2018-08-04T03:31:15.482Z,73.11
2018-08-04T03:33:47.879Z,73.12
2018-08-04T03:36:21.003Z,72.68
2018-08-04T03:38:53.806Z,72.59
2018-08-04T03:41:25.864Z,72.68
2018-08-04T03:43:57.225Z,72.66
2018-08-04T03:46:27.136Z,72.31
2018-08-04T03:48:58.921Z,72.57
2018-08-04T03:51:29.017Z,72.31
2018-08-04T03:54:00.367Z,72.36
2018-08-04T03:56:33.388Z,72.69
2018-08-04T03:59:02.862Z,73.29
2018-08-04T04:01:34.327Z,73.06
2018-08-04T04:04:06.093Z,72.16
2018-08-04T04:06:38.298Z,72.56
2018-08-04T04:09:14.001Z,72.67
2018-08-04T04:11:46.942Z,72.02
2018-08-04T04:14:21.747Z,71.62
2018-08-04T04:16:56.344Z,71.36
2018-08-04T04:19:31.241Z,71.04
2018-08-04T04:22:03.234Z,70.79
2018-08-04T04:24:34.615Z,71.31
2018-08-04T04:27:06.785Z,71.15
2018-08-04T04:29:38.394Z,71.25
2018-08-04T04:32:10.224Z,71.03
2018-08-04T04:34:41.681Z,71.09
2018-08-04T04:37:15.497Z,71.30
2018-08-04T04:39:48.724Z,71.80
2018-08-04T04:42:20.037Z,71.82
2018-08-04T04:44:53.178Z,71.44
2018-08-04T04:47:24.943Z,71.77
2018-08-04T04:49:54.980Z,71.56
2018-08-04T04:52:24.942Z,72.25
2018-08-04T04:54:56.654Z,70.96
2018-08-04T04:57:29.672Z,67.28
2018-08-04T05:00:01.657Z,67.23
2018-08-04T05:02:34.505Z,67.06
2018-08-04T05:05:05.549Z,64.33
2018-08-04T05:07:36.946Z,61.04
2018-08-04T05:10:09.998Z,61.67
2018-08-04T05:12:42.880Z,59.08
2018-08-04T05:15:16.061Z,57.47
2018-08-04T05:17:47.982Z,56.73
2018-08-04T05:20:17.091Z,54.66
2018-08-04T05:22:48.471Z,52.89
2018-08-04T05:25:21.016Z,53.33
2018-08-04T05:27:53.895Z,52.39
2018-08-04T05:30:25.382Z,53.35
2018-08-04T05:32:56.094Z,53.31
2018-08-04T05:35:29.000Z,52.62
2018-08-04T05:38:00.425Z,51.47
2018-08-04T05:40:33.482Z,51.28
2018-08-04T05:43:04.875Z,52.14
2018-08-04T05:45:36.573Z,52.00
2018-08-04T05:48:10.876Z,51.60
2018-08-04T05:50:43.743Z,53.21
2018-08-04T05:53:15.074Z,53.07
2018-08-04T05:55:46.624Z,52.56
2018-08-04T05:58:18.792Z,51.86
2018-08-04T06:00:50.342Z,49.63
2018-08-04T06:03:21.917Z,48.95
2018-08-04T06:05:56.319Z,46.70
2018-08-04T06:08:29.174Z,48.66
2018-08-04T06:11:00.067Z,47.09
2018-08-04T06:13:33.098Z,47.81
2018-08-04T06:16:06.021Z,45.93
2018-08-04T06:18:38.926Z,45.31
2018-08-04T06:21:09.407Z,45.44
2018-08-04T06:23:40.906Z,43.92
2018-08-04T06:26:10.810Z,43.50
2018-08-04T06:28:40.723Z,42.88
2018-08-04T06:31:10.643Z,43.15
2018-08-04T06:33:40.919Z,42.93
2018-08-04T06:36:12.233Z,43.91
2018-08-04T06:38:43.637Z,43.01
2018-08-04T06:41:15.064Z,42.69
2018-08-04T06:43:49.607Z,41.44
2018-08-04T06:46:22.599Z,40.69
2018-08-04T06:48:51.370Z,40.42
2018-08-04T06:51:22.693Z,40.69
2018-08-04T06:53:53.112Z,38.58
2018-08-04T06:56:24.472Z,40.61
2018-08-04T06:58:55.939Z,39.13
2018-08-04T07:01:28.059Z,38.34
2018-08-04T07:04:00.431Z,36.99
2018-08-04T07:06:30.315Z,37.30
2018-08-04T07:09:01.707Z,37.79
2018-08-04T07:11:34.638Z,37.51
2018-08-04T07:14:05.983Z,39.03
2018-08-04T07:16:39.623Z,39.36
2018-08-04T07:19:13.828Z,36.38
2018-08-04T07:21:46.718Z,35.72
2018-08-04T07:24:16.605Z,35.24
2018-08-04T07:26:49.419Z,33.98
2018-08-04T07:29:22.227Z,33.13
2018-08-04T07:31:55.197Z,33.68
2018-08-04T07:34:26.943Z,32.87
2018-08-04T07:36:58.333Z,32.81
2018-08-04T07:39:29.689Z,32.60
2018-08-04T07:42:01.084Z,32.79
2018-08-04T07:44:30.992Z,33.14
2018-08-04T07:47:01.570Z,33.04
2018-08-04T07:49:32.336Z,33.98
2018-08-04T07:52:05.172Z,34.60
2018-08-04T07:54:38.558Z,35.60
2018-08-04T07:57:10.314Z,33.92
2018-08-04T07:59:43.153Z,32.97
2018-08-04T08:02:13.099Z,32.35
2018-08-04T08:04:44.405Z,32.88
2018-08-04T08:07:15.755Z,33.42
2018-08-04T08:09:48.601Z,32.44
2018-08-04T08:12:21.423Z,33.03
2018-08-04T08:14:52.695Z,32.78
2018-08-04T08:17:27.043Z,33.67
2018-08-04T08:19:57.564Z,32.09
2018-08-04T08:22:46.800Z,32.98
2018-08-04T08:25:16.635Z,33.67
2018-08-04T08:27:49.494Z,34.58
2018-08-04T08:30:20.095Z,33.76
2018-08-04T08:32:51.292Z,34.18
2018-08-04T08:35:22.845Z,32.90
2018-08-04T08:37:55.897Z,33.72
2018-08-04T08:40:25.861Z,32.76
2018-08-04T08:42:55.660Z,33.83
2018-08-04T08:45:28.601Z,34.37
2018-08-04T08:48:00.666Z,32.48
2018-08-04T08:50:29.735Z,36.39
2018-08-04T08:53:02.656Z,33.98
2018-08-04T08:55:36.787Z,34.51
2018-08-04T08:58:08.741Z,33.57
2018-08-04T09:00:40.550Z,34.94
2018-08-04T09:03:10.645Z,34.11
2018-08-04T09:05:41.010Z,33.12
2018-08-04T09:08:12.523Z,31.08
2018-08-04T09:10:42.414Z,33.82
2018-08-04T09:13:14.303Z,35.07
2018-08-04T09:15:48.622Z,34.65
2018-08-04T09:18:22.731Z,35.57
2018-08-04T09:20:54.201Z,33.38
2018-08-04T09:23:23.991Z,34.81
2018-08-04T09:25:57.395Z,35.89
2018-08-04T09:28:28.813Z,37.19
2018-08-04T09:30:58.699Z,34.85
2018-08-04T09:33:29.997Z,35.97
2018-08-04T09:35:59.918Z,34.85
2018-08-04T09:38:29.882Z,36.08
2018-08-04T09:41:02.887Z,35.56
2018-08-04T09:43:36.212Z,38.48
2018-08-04T09:46:10.991Z,35.71
2018-08-04T09:48:42.315Z,37.06
2018-08-04T09:51:15.813Z,37.83
2018-08-04T09:53:45.729Z,37.74
2018-08-04T09:56:18.478Z,36.72
2018-08-04T09:58:49.405Z,35.91
2018-08-04T10:01:42.272Z,36.94
2018-08-04T10:04:13.927Z,36.58
2018-08-04T10:06:47.002Z,36.62
2018-08-04T10:09:18.409Z,35.53
2018-08-04T10:11:50.001Z,34.94
2018-08-04T10:14:23.010Z,34.91
2018-08-04T10:16:57.339Z,34.79
2018-08-04T10:19:29.905Z,35.65
2018-08-04T10:22:02.703Z,35.21
2018-08-04T10:24:34.531Z,36.49
2018-08-04T10:27:04.496Z,38.63
2018-08-04T10:29:36.277Z,36.45
2018-08-04T10:32:05.813Z,35.04
2018-08-04T10:34:35.534Z,34.97
2018-08-04T10:37:05.423Z,36.61
2018-08-04T10:39:39.775Z,35.79
2018-08-04T10:42:09.712Z,37.28
2018-08-04T10:44:41.049Z,36.22
2018-08-04T10:47:14.115Z,36.58
2018-08-04T10:49:46.968Z,36.50
2018-08-04T10:52:17.405Z,36.38
2018-08-04T10:54:49.071Z,36.38
2018-08-04T10:57:20.411Z,36.81
2018-08-04T10:59:51.744Z,37.68
2018-08-04T11:02:25.575Z,38.27
2018-08-04T11:04:57.474Z,37.37
2018-08-04T11:07:30.951Z,36.23
2018-08-04T11:10:03.491Z,35.94
2018-08-04T11:12:33.404Z,35.50
2018-08-04T11:15:04.817Z,37.18
2018-08-04T11:17:39.199Z,35.85
2018-08-04T11:20:10.480Z,37.71
2018-08-04T11:22:41.952Z,37.82
2018-08-04T11:25:14.725Z,35.99
2018-08-04T11:27:44.590Z,36.51
2018-08-04T11:30:17.458Z,37.30
2018-08-04T11:32:48.749Z,38.30
2018-08-04T11:35:21.163Z,40.40
2018-08-04T11:37:51.051Z,38.92
2018-08-04T11:40:22.356Z,39.50
2018-08-04T11:42:54.171Z,40.44
2018-08-04T11:45:23.755Z,38.82
2018-08-04T11:47:53.610Z,38.40
2018-08-04T11:50:23.668Z,41.05
2018-08-04T11:52:55.009Z,40.23
2018-08-04T11:55:28.031Z,42.72
2018-08-04T11:57:58.187Z,41.16
2018-08-04T12:00:28.102Z,40.03
2018-08-04T12:02:59.962Z,41.48
2018-08-04T12:05:29.943Z,40.16
2018-08-04T12:08:00.233Z,39.86
2018-08-04T12:10:30.075Z,41.16
2018-08-04T12:13:04.484Z,41.76
2018-08-04T12:15:35.357Z,42.33
2018-08-04T12:18:06.867Z,39.46
2018-08-04T12:20:39.795Z,40.92
2018-08-04T12:23:14.173Z,40.04
2018-08-04T12:25:45.581Z,41.64
2018-08-04T12:28:17.038Z,44.36
2018-08-04T12:30:48.511Z,44.97
2018-08-04T12:33:21.294Z,44.60
2018-08-04T12:35:52.632Z,43.60
2018-08-04T12:38:25.413Z,43.11
2018-08-04T12:40:58.482Z,42.62
2018-08-04T12:43:27.872Z,41.04
2018-08-04T12:45:59.196Z,43.04
2018-08-04T12:48:31.223Z,44.14
2018-08-04T12:51:04.939Z,44.02
2018-08-04T12:53:36.419Z,43.13
2018-08-04T12:56:07.805Z,43.78
2018-08-04T12:58:39.874Z,43.36
2018-08-04T13:01:10.107Z,43.56
2018-08-04T13:03:41.994Z,42.09
2018-08-04T13:06:16.180Z,42.55
2018-08-04T13:08:47.630Z,41.71
2018-08-04T13:11:18.959Z,41.42
2018-08-04T13:13:51.842Z,41.46
2018-08-04T13:16:26.182Z,43.48
2018-08-04T13:18:59.073Z,42.50
2018-08-04T13:21:30.931Z,41.30
2018-08-04T13:24:02.340Z,43.27
2018-08-04T13:26:35.272Z,43.01
2018-08-04T13:29:08.256Z,42.94
2018-08-04T13:31:39.649Z,42.13
2018-08-04T13:34:12.628Z,42.90
2018-08-04T13:36:42.491Z,44.35
2018-08-04T13:39:12.705Z,44.55
2018-08-04T13:41:45.313Z,44.95
2018-08-04T13:44:16.576Z,43.77
2018-08-04T13:46:50.829Z,44.52
2018-08-04T13:49:22.226Z,45.33
2018-08-04T13:51:53.591Z,45.03
2018-08-04T13:54:26.482Z,44.14
2018-08-04T13:56:56.554Z,44.89
2018-08-04T13:59:26.426Z,46.99
2018-08-04T14:01:57.859Z,45.98
2018-08-04T14:04:27.836Z,45.88
2018-08-04T14:06:57.648Z,46.28
2018-08-04T14:09:28.991Z,46.78
2018-08-04T14:11:58.971Z,45.22
2018-08-04T14:14:30.267Z,47.20
2018-08-04T14:17:00.273Z,48.22
2018-08-04T14:19:32.184Z,48.81
2018-08-04T14:22:01.838Z,47.84
2018-08-04T14:24:34.851Z,48.16
2018-08-04T14:27:07.039Z,47.51
2018-08-04T14:29:38.400Z,47.10
2018-08-04T14:32:08.339Z,46.70
2018-08-04T14:34:39.719Z,48.20
2018-08-04T14:37:11.073Z,47.83
2018-08-04T14:39:44.045Z,48.13
2018-08-04T14:42:15.801Z,48.47
2018-08-04T14:44:47.251Z,49.31
2018-08-04T14:47:21.520Z,48.92
2018-08-04T14:49:52.962Z,48.43
2018-08-04T14:52:25.922Z,48.60
2018-08-04T14:54:58.798Z,49.02
2018-08-04T14:57:29.305Z,49.63
2018-08-04T15:00:02.098Z,49.35
2018-08-04T15:02:33.470Z,49.41
2018-08-04T15:05:04.877Z,49.44
2018-08-04T15:07:36.466Z,49.62
2018-08-04T15:10:09.323Z,49.71
2018-08-04T15:12:39.148Z,48.76
2018-08-04T15:15:13.549Z,50.45
2018-08-04T15:17:44.965Z,50.32
2018-08-04T15:20:17.805Z,50.12
2018-08-04T15:22:47.693Z,50.55
2018-08-04T15:25:17.707Z,50.88
2018-08-04T15:27:49.233Z,51.91
2018-08-04T15:30:22.142Z,52.14
2018-08-04T15:32:55.376Z,52.55
2018-08-04T15:35:24.761Z,53.35
2018-08-04T15:37:57.562Z,52.54
2018-08-04T15:40:27.123Z,52.90
2018-08-04T15:42:58.554Z,53.70
2018-08-04T15:45:31.646Z,53.29
2018-08-04T15:48:03.197Z,53.82
2018-08-04T15:50:34.589Z,54.34
2018-08-04T15:53:09.300Z,54.93
2018-08-04T15:55:40.821Z,53.61
2018-08-04T15:58:12.411Z,53.89
2018-08-04T16:00:45.387Z,53.24
2018-08-04T16:03:18.151Z,54.07
2018-08-04T16:05:51.124Z,54.76
2018-08-04T16:08:21.001Z,55.51
2018-08-04T16:10:52.431Z,55.08
2018-08-04T16:13:23.866Z,56.65
2018-08-04T16:15:55.319Z,56.38
2018-08-04T16:18:25.216Z,57.62
2018-08-04T16:20:57.821Z,58.05
2018-08-04T16:23:29.246Z,58.45
2018-08-04T16:26:02.203Z,58.46
2018-08-04T16:28:35.488Z,59.19
2018-08-04T16:31:05.662Z,59.11
2018-08-04T16:33:37.036Z,58.94
2018-08-04T16:36:07.156Z,59.92
2018-08-04T16:38:38.622Z,60.35
2018-08-04T16:41:11.939Z,59.70
2018-08-04T16:43:43.937Z,58.80
2018-08-04T16:46:15.262Z,59.05
2018-08-04T16:48:46.933Z,59.60
2018-08-04T16:51:18.521Z,59.37
2018-08-04T16:53:48.513Z,59.60
2018-08-04T16:56:18.403Z,58.24
2018-08-04T16:58:49.855Z,59.39
2018-08-04T17:01:19.772Z,60.24
2018-08-04T17:03:52.750Z,61.34
2018-08-04T17:06:22.877Z,60.93
2018-08-04T17:08:54.316Z,60.36
2018-08-04T17:11:24.385Z,60.72
2018-08-04T17:13:54.487Z,60.43
2018-08-04T17:16:24.511Z,60.63
2018-08-04T17:18:55.935Z,61.86
2018-08-04T17:21:26.927Z,62.03
2018-08-04T17:23:58.294Z,61.61
2018-08-04T17:26:30.215Z,61.52
2018-08-04T17:29:00.135Z,61.36
2018-08-04T17:31:31.430Z,62.08
2018-08-04T17:34:03.017Z,61.58
2018-08-04T17:36:35.952Z,61.12
2018-08-04T17:39:10.255Z,61.83
2018-08-04T17:41:43.838Z,59.85
2018-08-04T17:44:13.797Z,60.40
2018-08-04T17:46:46.708Z,60.50
2018-08-04T17:49:16.656Z,61.84
2018-08-04T17:51:46.589Z,61.86
2018-08-04T17:54:17.945Z,62.72
2018-08-04T17:56:49.462Z,64.00
2018-08-04T17:59:22.316Z,63.74
2018-08-04T18:01:53.016Z,64.47
2018-08-04T18:04:24.374Z,64.44
2018-08-04T18:06:58.342Z,64.08
2018-08-04T18:09:30.079Z,64.77
2018-08-04T18:12:03.014Z,64.85
2018-08-04T18:14:34.924Z,64.95
2018-08-04T18:17:06.755Z,64.86
2018-08-04T18:19:38.149Z,65.45
2018-08-04T18:22:09.685Z,65.66
2018-08-04T18:24:42.854Z,65.78
2018-08-04T18:27:16.508Z,66.03
2018-08-04T18:29:47.209Z,66.04
2018-08-04T18:32:18.682Z,66.36
2018-08-04T18:34:48.607Z,66.16
2018-08-04T18:37:22.012Z,66.68
2018-08-04T18:39:52.698Z,66.74
2018-08-04T18:42:24.142Z,66.95
2018-08-04T18:44:54.093Z,67.18
2018-08-04T18:47:25.522Z,66.66
2018-08-04T18:49:59.990Z,67.52
2018-08-04T18:52:33.055Z,68.25
2018-08-04T18:55:04.447Z,68.51
2018-08-04T18:57:36.416Z,68.37
2018-08-04T19:00:08.027Z,69.38
2018-08-04T19:02:42.500Z,69.59
2018-08-04T19:05:15.428Z,69.62
2018-08-04T19:07:48.340Z,69.60
2018-08-04T19:10:21.436Z,69.93
2018-08-04T19:12:54.509Z,70.18
2018-08-04T19:15:25.877Z,70.06
2018-08-04T19:17:58.748Z,69.45
2018-08-04T19:20:30.711Z,69.84
2018-08-04T19:23:05.224Z,70.47
2018-08-04T19:25:38.147Z,71.00
2018-08-04T19:28:10.567Z,70.83
2018-08-04T19:30:40.892Z,70.82
2018-08-04T19:33:11.303Z,70.74
2018-08-04T19:35:43.671Z,70.44
2018-08-04T19:38:18.296Z,70.88
2018-08-04T19:40:49.733Z,71.10
2018-08-04T19:43:18.874Z,71.08
2018-08-04T19:45:49.612Z,71.52
2018-08-04T19:48:21.221Z,71.48
2018-08-04T19:50:53.310Z,71.51
2018-08-04T19:53:23.323Z,71.68
2018-08-04T19:55:54.789Z,72.07
2018-08-04T19:58:26.296Z,72.36
2018-08-04T20:00:58.194Z,72.50
2018-08-04T20:03:31.038Z,72.43
2018-08-04T20:06:01.053Z,73.23
2018-08-04T20:08:34.181Z,73.36
2018-08-04T20:11:07.043Z,74.06
2018-08-04T20:13:36.988Z,74.83
2018-08-04T20:16:08.524Z,74.93
2018-08-04T20:18:41.421Z,75.23
2018-08-04T20:21:14.373Z,75.41
2018-08-04T20:23:49.034Z,75.47
2018-08-04T20:26:20.803Z,75.48
2018-08-04T20:28:52.206Z,76.11
2018-08-04T20:31:22.202Z,76.31
2018-08-04T20:33:54.204Z,76.84
2018-08-04T20:36:25.968Z,77.12
2018-08-04T20:38:56.391Z,77.24
2018-08-04T20:41:29.442Z,77.63
2018-08-04T20:44:02.471Z,78.55
2018-08-04T20:46:34.249Z,78.59
2018-08-04T20:49:05.794Z,78.52
2018-08-04T20:51:37.999Z,79.03
2018-08-04T20:54:10.043Z,79.10
2018-08-04T20:56:43.161Z,79.20
2018-08-04T20:59:15.322Z,79.45
2018-08-04T21:02:06.227Z,79.45
2018-08-04T21:04:37.510Z,79.46
2018-08-04T21:07:09.367Z,79.54
2018-08-04T21:09:40.820Z,78.57
2018-08-04T21:12:11.157Z,79.37
2018-08-04T21:14:42.624Z,79.38
2018-08-04T21:17:14.173Z,79.91
2018-08-04T21:19:45.862Z,80.00
2018-08-04T21:22:18.845Z,79.56
2018-08-04T21:24:51.758Z,79.77
2018-08-04T21:27:21.613Z,79.67
2018-08-04T21:29:54.605Z,79.83
2018-08-04T21:32:26.967Z,79.99
2018-08-04T21:34:58.472Z,79.67
2018-08-04T21:37:31.272Z,79.91
2018-08-04T21:40:05.863Z,79.92
2018-08-04T21:42:39.002Z,79.49
2018-08-04T21:45:08.749Z,79.85
2018-08-04T21:47:40.718Z,79.96
2018-08-04T21:50:11.713Z,79.90
2018-08-04T21:52:43.260Z,79.94
2018-08-04T21:55:17.711Z,80.32
2018-08-04T21:57:50.528Z,80.82
2018-08-04T22:00:23.444Z,80.89
2018-08-04T22:03:02.343Z,81.10
2018-08-04T22:05:34.453Z,80.79
2018-08-04T22:08:40.341Z,81.08
2018-08-04T22:11:11.895Z,81.49
2018-08-04T22:13:42.925Z,81.51
2018-08-04T22:16:15.859Z,81.49
2018-08-04T22:18:45.844Z,81.49
2018-08-04T22:21:18.956Z,80.69
2018-08-04T22:23:48.933Z,81.09
2018-08-04T22:26:19.004Z,81.53
2018-08-04T22:28:49.578Z,81.37
2018-08-04T22:31:22.188Z,81.43
2018-08-04T22:33:55.144Z,81.86
2018-08-04T22:36:29.508Z,81.80
2018-08-04T22:39:02.683Z,81.54
2018-08-04T22:41:37.159Z,82.50
2018-08-04T22:44:08.658Z,82.39
2018-08-04T22:46:41.500Z,82.42
2018-08-04T22:49:13.895Z,82.23
2018-08-04T22:51:47.653Z,82.50
2018-08-04T22:54:21.520Z,83.15
2018-08-04T22:56:54.058Z,83.31
2018-08-04T22:59:25.469Z,83.20
2018-08-04T23:01:58.488Z,83.44
2018-08-04T23:04:29.918Z,83.33
2018-08-04T23:07:01.661Z,83.55
2018-08-04T23:09:31.626Z,83.56
2018-08-04T23:12:03.891Z,84.25
2018-08-04T23:14:36.789Z,84.33
2018-08-04T23:17:06.787Z,84.70
2018-08-04T23:19:38.150Z,84.41
2018-08-04T23:22:08.159Z,84.69
2018-08-04T23:24:39.806Z,85.34
2018-08-04T23:27:11.338Z,85.16
2018-08-04T23:29:41.473Z,85.13
2018-08-04T23:32:15.869Z,85.75
2018-08-04T23:34:45.812Z,85.69
2018-08-04T23:37:15.988Z,86.12
2018-08-04T23:39:47.418Z,86.36
2018-08-04T23:42:20.560Z,86.63
2018-08-04T23:44:50.491Z,86.28
2018-08-04T23:47:22.295Z,86.33
2018-08-04T23:49:53.896Z,86.01
2018-08-04T23:52:25.518Z,85.55
2018-08-04T23:54:57.037Z,85.89
2018-08-04T23:57:29.277Z,85.99
